Time;durP1;ratioP1;P1;durP2;ratioP2;P2;SDS_P1;SDS_P2;PMS_P1;PMS_P2;Temp;Humidity;BMP_temperature;BMP_pressure;BME280_temperature;BME280_humidity;BME280_pressure;Samples;Min_cycle;Max_cycle;Signal;HPM_P1;HPM_P2
2021/11/29 00:00:01;;;;;;;10.05;9.00;;;5.20;99.90;;;;;;4956739;29;20279;-79
2021/11/29 00:02:41;;;;;;;9.25;8.05;;;5.10;99.90;;;;;;4939451;29;20179;-79
2021/11/29 00:05:08;;;;;;;14.07;10.48;;;5.10;99.90;;;;;;4956935;29;20237;-80
2021/11/29 00:07:33;;;;;;;11.95;8.77;;;5.00;99.90;;;;;;4938889;29;20180;-80
2021/11/29 00:09:59;;;;;;;11.83;9.47;;;4.90;99.90;;;;;;4956650;29;21025;-80
2021/11/29 00:12:25;;;;;;;14.48;10.88;;;4.80;99.90;;;;;;4956617;29;20580;-80
2021/11/29 00:14:51;;;;;;;13.17;9.80;;;4.80;99.90;;;;;;4956834;29;20702;-80
2021/11/29 00:17:17;;;;;;;12.70;10.43;;;4.70;99.90;;;;;;4939104;29;20568;-80
2021/11/29 00:19:43;;;;;;;11.30;8.80;;;4.60;99.90;;;;;;4939579;29;20608;-81
2021/11/29 00:22:09;;;;;;;9.27;8.33;;;4.60;99.90;;;;;;4958754;29;20240;-81
2021/11/29 00:24:38;;;;;;;11.35;9.10;;;4.50;99.90;;;;;;4924437;29;20642;-81
2021/11/29 00:27:04;;;;;;;14.52;10.07;;;4.50;99.90;;;;;;4955725;29;20181;-80
2021/11/29 00:29:30;;;;;;;11.63;10.38;;;4.40;99.90;;;;;;4956349;29;20200;-80
2021/11/29 00:31:55;;;;;;;13.33;9.87;;;4.40;99.90;;;;;;4939108;29;20180;-80
2021/11/29 00:34:22;;;;;;;12.97;10.63;;;4.30;99.90;;;;;;4955534;29;20207;-80
2021/11/29 00:36:48;;;;;;;10.32;9.25;;;4.30;99.90;;;;;;4956152;29;20623;-80
2021/11/29 00:39:16;;;;;;;11.30;10.10;;;4.20;99.90;;;;;;4938664;29;20977;-80
2021/11/29 00:41:41;;;;;;;12.07;10.18;;;4.20;99.90;;;;;;4955875;29;20575;-80
2021/11/29 00:44:07;;;;;;;11.17;10.07;;;4.20;99.90;;;;;;4955848;29;20168;-80
2021/11/29 00:46:33;;;;;;;11.77;10.23;;;4.10;99.90;;;;;;4956019;29;20586;-80
2021/11/29 00:48:59;;;;;;;11.00;8.93;;;4.10;99.90;;;;;;4938131;29;20195;-80
2021/11/29 00:51:24;;;;;;;9.57;8.57;;;4.00;99.90;;;;;;4938294;29;20274;-80
2021/11/29 00:53:50;;;;;;;12.77;9.93;;;4.00;99.90;;;;;;4938327;29;20196;-81
2021/11/29 00:56:18;;;;;;;12.67;10.83;;;4.00;99.90;;;;;;4945001;29;20255;-80
2021/11/29 00:58:44;;;;;;;10.73;8.18;;;3.90;99.90;;;;;;4946416;29;20209;-80
2021/11/29 01:01:10;;;;;;;13.80;9.90;;;4.00;99.90;;;;;;4926399;29;20637;-81
2021/11/29 01:03:39;;;;;;;11.00;8.70;;;3.90;99.90;;;;;;4938810;29;20196;-80
2021/11/29 01:06:08;;;;;;;13.23;9.55;;;3.90;99.90;;;;;;4953172;28;20932;-80
2021/11/29 01:08:35;;;;;;;10.82;9.05;;;3.80;99.90;;;;;;4937712;29;20266;-80
2021/11/29 01:11:03;;;;;;;11.15;8.88;;;3.80;99.90;;;;;;4955335;29;20176;-81
2021/11/29 01:13:29;;;;;;;10.55;8.98;;;3.80;99.90;;;;;;4955512;29;20192;-80
2021/11/29 01:15:55;;;;;;;10.25;8.85;;;3.80;99.90;;;;;;4938372;29;20176;-80
2021/11/29 01:18:23;;;;;;;9.45;8.02;;;3.70;99.90;;;;;;4922824;29;20179;-80
2021/11/29 01:20:49;;;;;;;11.68;8.82;;;3.70;99.90;;;;;;4938412;29;20218;-80
2021/11/29 01:23:17;;;;;;;11.02;8.55;;;3.80;99.90;;;;;;4955073;29;20177;-81
2021/11/29 01:25:43;;;;;;;13.48;9.95;;;3.70;99.90;;;;;;4938212;29;20168;-81
2021/11/29 01:28:10;;;;;;;9.43;8.45;;;3.70;99.90;;;;;;4954677;29;20180;-80
2021/11/29 01:30:37;;;;;;;10.00;8.02;;;3.70;99.90;;;;;;4955472;29;20219;-80
2021/11/29 01:33:03;;;;;;;9.77;8.55;;;3.70;99.90;;;;;;4954881;29;20179;-80
2021/11/29 01:35:29;;;;;;;11.85;8.85;;;3.70;99.90;;;;;;4938054;29;20179;-80
2021/11/29 01:37:55;;;;;;;9.05;7.70;;;3.70;99.90;;;;;;4960896;29;20172;-80
2021/11/29 01:40:21;;;;;;;8.32;7.25;;;3.70;99.90;;;;;;4906377;29;20188;-80
2021/11/29 01:43:13;;;;;;;8.73;7.90;;;3.70;99.90;;;;;;4905877;29;20180;-80
2021/11/29 01:45:43;;;;;;;9.50;6.72;;;3.80;99.90;;;;;;4938037;29;20172;-80
2021/11/29 01:48:10;;;;;;;7.15;6.28;;;3.80;99.90;;;;;;4937345;29;20289;-81
2021/11/29 01:50:38;;;;;;;9.70;6.97;;;3.80;99.90;;;;;;4954890;29;20287;-80
2021/11/29 01:53:05;;;;;;;7.13;6.25;;;3.90;99.90;;;;;;4954670;29;20164;-80
2021/11/29 01:55:32;;;;;;;7.38;6.15;;;3.90;99.90;;;;;;4937302;29;20259;-80
2021/11/29 01:57:58;;;;;;;8.00;6.45;;;3.90;99.90;;;;;;4937143;29;20609;-80
2021/11/29 02:00:29;;;;;;;8.57;6.95;;;4.00;99.90;;;;;;4954693;29;20196;-80
2021/11/29 02:02:56;;;;;;;9.65;7.63;;;4.00;99.90;;;;;;4954695;29;20176;-80
2021/11/29 02:05:26;;;;;;;11.30;6.85;;;4.10;99.90;;;;;;4937372;29;20172;-80
2021/11/29 02:07:52;;;;;;;7.18;6.47;;;4.10;99.90;;;;;;4921036;29;20232;-80
2021/11/29 02:10:21;;;;;;;8.25;6.30;;;4.10;99.90;;;;;;4954754;29;20295;-80
2021/11/29 02:12:47;;;;;;;7.13;6.43;;;4.10;99.90;;;;;;4954726;29;20172;-80
2021/11/29 02:15:15;;;;;;;9.70;6.00;;;4.10;99.90;;;;;;4956366;29;20228;-80
2021/11/29 02:17:42;;;;;;;8.75;6.20;;;4.00;99.90;;;;;;4936440;28;20180;-81
2021/11/29 02:20:09;;;;;;;8.75;6.68;;;4.00;99.90;;;;;;4954997;29;20196;-80
2021/11/29 02:22:35;;;;;;;8.15;6.03;;;4.00;99.90;;;;;;4937403;29;20173;-80
2021/11/29 02:25:02;;;;;;;8.98;6.10;;;4.00;99.90;;;;;;4954870;29;20548;-79
2021/11/29 02:27:27;;;;;;;8.50;5.43;;;3.90;99.90;;;;;;4953612;29;20187;-80
2021/11/29 02:29:55;;;;;;;6.57;5.60;;;3.90;99.90;;;;;;4936960;29;20193;-80
2021/11/29 02:32:21;;;;;;;6.30;5.65;;;3.90;99.90;;;;;;4936829;29;20183;-80
2021/11/29 02:34:48;;;;;;;8.60;6.22;;;3.90;99.90;;;;;;4920755;29;20917;-80
2021/11/29 02:37:14;;;;;;;7.40;6.35;;;3.90;99.90;;;;;;4953124;29;20259;-80
2021/11/29 02:39:41;;;;;;;5.20;4.70;;;3.90;99.90;;;;;;4953929;29;20192;-80
2021/11/29 02:42:09;;;;;;;8.93;6.28;;;3.90;99.90;;;;;;4954051;29;20164;-80
2021/11/29 02:44:35;;;;;;;6.82;6.15;;;3.80;99.90;;;;;;4936431;29;20192;-80
2021/11/29 02:47:02;;;;;;;8.20;4.60;;;3.80;99.90;;;;;;4953474;29;20191;-80
2021/11/29 02:49:28;;;;;;;5.85;5.20;;;3.80;99.90;;;;;;4936647;29;20660;-80
2021/11/29 02:52:06;;;;;;;7.50;6.30;;;3.80;99.90;;;;;;4957224;29;20179;-80
2021/11/29 02:54:35;;;;;;;5.40;4.90;;;3.80;99.90;;;;;;4953178;29;20254;-80
2021/11/29 02:57:10;;;;;;;9.43;6.32;;;3.70;99.90;;;;;;4955928;29;20232;-79
2021/11/29 02:59:37;;;;;;;7.50;5.60;;;3.70;99.90;;;;;;4937444;29;20195;-80
2021/11/29 03:02:08;;;;;;;5.82;4.70;;;3.60;99.90;;;;;;4953736;29;20181;-80
2021/11/29 03:04:35;;;;;;;5.10;4.45;;;3.60;99.90;;;;;;4953387;29;20540;-79
2021/11/29 03:07:02;;;;;;;6.40;5.20;;;3.50;99.90;;;;;;4945488;29;20556;-80
2021/11/29 03:09:29;;;;;;;6.63;5.15;;;3.50;99.90;;;;;;4955209;28;20281;-80
2021/11/29 03:11:55;;;;;;;7.38;4.47;;;3.40;99.90;;;;;;4955655;28;20178;-80
2021/11/29 03:14:21;;;;;;;6.15;4.40;;;3.40;99.90;;;;;;4972554;28;20210;-80
2021/11/29 03:16:48;;;;;;;5.40;4.17;;;3.40;99.90;;;;;;4955578;28;20176;-79
2021/11/29 03:19:15;;;;;;;8.07;5.13;;;3.30;99.90;;;;;;4939320;28;20618;-79
2021/11/29 03:21:40;;;;;;;4.68;4.18;;;3.30;99.90;;;;;;4955236;28;20163;-80
2021/11/29 03:24:09;;;;;;;7.47;4.93;;;3.30;99.90;;;;;;4955451;28;20176;-79
2021/11/29 03:26:35;;;;;;;6.00;4.65;;;3.20;99.90;;;;;;4975996;28;20594;-80
2021/11/29 03:29:14;;;;;;;7.50;4.63;;;3.20;99.90;;;;;;4977832;28;20227;-80
2021/11/29 03:31:42;;;;;;;4.47;3.90;;;3.20;99.90;;;;;;4976525;28;20176;-79
2021/11/29 03:34:11;;;;;;;4.78;4.32;;;3.20;99.90;;;;;;4976425;28;20290;-79
2021/11/29 03:36:39;;;;;;;4.60;4.20;;;3.20;99.90;;;;;;4959261;28;20178;-79
2021/11/29 03:39:09;;;;;;;6.50;4.63;;;3.20;99.90;;;;;;4976193;28;20278;-80
2021/11/29 03:41:36;;;;;;;5.18;4.22;;;3.20;99.90;;;;;;4959548;28;20536;-80
2021/11/29 03:44:02;;;;;;;4.45;4.05;;;3.20;99.90;;;;;;4975948;28;20178;-80
2021/11/29 03:46:28;;;;;;;4.37;3.87;;;3.20;99.90;;;;;;4976554;28;20648;-80
2021/11/29 03:48:54;;;;;;;4.20;3.60;;;3.20;99.90;;;;;;4958582;28;20630;-80
2021/11/29 03:51:19;;;;;;;4.70;4.30;;;3.20;99.90;;;;;;4976168;28;20574;-79
2021/11/29 03:53:45;;;;;;;4.40;3.83;;;3.30;99.90;;;;;;4958720;28;20567;-80
2021/11/29 03:56:11;;;;;;;6.73;4.43;;;3.30;99.90;;;;;;4959305;28;20171;-80
2021/11/29 03:58:37;;;;;;;4.80;3.83;;;3.30;99.90;;;;;;4975700;28;20168;-80
2021/11/29 04:01:04;;;;;;;4.80;4.30;;;3.30;99.90;;;;;;4976201;28;20579;-79
2021/11/29 04:03:30;;;;;;;4.50;3.63;;;3.30;99.90;;;;;;4976303;28;20580;-80
2021/11/29 04:05:57;;;;;;;3.55;3.22;;;3.30;99.90;;;;;;4962049;28;20180;-79
2021/11/29 04:08:24;;;;;;;4.15;3.60;;;3.30;99.90;;;;;;4958410;28;20197;-79
2021/11/29 04:10:50;;;;;;;4.43;3.53;;;3.30;99.90;;;;;;4975757;28;20202;-79
2021/11/29 04:13:16;;;;;;;3.95;3.55;;;3.30;99.90;;;;;;4958492;28;20199;-79
2021/11/29 04:15:42;;;;;;;6.25;3.22;;;3.30;99.90;;;;;;4975835;28;20206;-79
2021/11/29 04:18:08;;;;;;;5.47;2.87;;;3.40;99.90;;;;;;4975374;28;20207;-79
2021/11/29 04:20:33;;;;;;;3.37;2.73;;;3.40;99.90;;;;;;4975461;28;20207;-79
2021/11/29 04:23:00;;;;;;;2.87;2.67;;;3.40;99.90;;;;;;4975675;28;20178;-79
2021/11/29 04:25:33;;;;;;;3.35;2.63;;;3.40;99.90;;;;;;4975980;28;20574;-80
2021/11/29 04:27:59;;;;;;;5.60;2.97;;;3.30;99.90;;;;;;4975041;28;20179;-80
2021/11/29 04:30:26;;;;;;;4.68;2.65;;;3.30;99.90;;;;;;4958398;28;20180;-80
2021/11/29 04:32:53;;;;;;;2.53;2.30;;;3.30;99.90;;;;;;4974945;28;20176;-80
2021/11/29 04:35:20;;;;;;;3.58;2.30;;;3.30;99.90;;;;;;4975611;28;20210;-80
2021/11/29 04:37:46;;;;;;;4.25;2.70;;;3.30;99.90;;;;;;4957857;28;20175;-80
2021/11/29 04:40:12;;;;;;;3.80;2.53;;;3.30;99.90;;;;;;4975576;28;20681;-78
2021/11/29 04:42:38;;;;;;;3.15;2.00;;;3.30;99.90;;;;;;4977996;28;20568;-78
2021/11/29 04:45:05;;;;;;;3.77;2.60;;;3.20;99.90;;;;;;4975604;28;20304;-78
2021/11/29 04:47:31;;;;;;;3.85;1.70;;;3.20;99.90;;;;;;4974574;28;20970;-78
2021/11/29 04:49:57;;;;;;;3.63;2.10;;;3.20;99.90;;;;;;4958097;28;20223;-78
2021/11/29 04:52:23;;;;;;;3.47;1.80;;;3.20;99.90;;;;;;4975274;28;21045;-78
2021/11/29 04:54:48;;;;;;;3.07;1.83;;;3.30;99.90;;;;;;4974800;28;20198;-79
2021/11/29 04:57:14;;;;;;;2.60;1.97;;;3.30;99.90;;;;;;4974771;28;20179;-79
2021/11/29 04:59:40;;;;;;;3.33;2.00;;;3.30;99.90;;;;;;4974835;28;20198;-79
2021/11/29 05:02:06;;;;;;;3.53;2.40;;;3.40;99.90;;;;;;4974925;28;20610;-79
2021/11/29 05:04:32;;;;;;;2.47;1.93;;;3.40;99.90;;;;;;4974703;28;20172;-79
2021/11/29 05:06:58;;;;;;;5.85;2.10;;;3.50;99.90;;;;;;4974585;28;20584;-78
2021/11/29 05:09:24;;;;;;;5.53;2.10;;;3.60;99.90;;;;;;4962202;28;20269;-78
2021/11/29 05:11:50;;;;;;;3.85;2.25;;;3.60;99.90;;;;;;4973798;28;20948;-78
2021/11/29 05:14:16;;;;;;;3.43;2.20;;;3.70;99.90;;;;;;4974713;28;20207;-78
2021/11/29 05:16:43;;;;;;;3.37;1.83;;;3.80;99.90;;;;;;4974560;28;20575;-78
2021/11/29 05:19:09;;;;;;;2.85;2.60;;;3.90;99.90;;;;;;4977502;28;20599;-78
2021/11/29 05:21:36;;;;;;;3.88;2.35;;;3.90;99.90;;;;;;4974703;28;20168;-78
2021/11/29 05:24:03;;;;;;;6.60;2.42;;;3.90;99.90;;;;;;4973371;28;20179;-79
2021/11/29 05:26:29;;;;;;;3.58;3.25;;;3.90;99.90;;;;;;4973261;28;20187;-78
2021/11/29 05:28:57;;;;;;;4.23;2.80;;;4.00;99.90;;;;;;4974206;28;20196;-79
2021/11/29 05:31:24;;;;;;;2.60;2.40;;;4.00;99.90;;;;;;4974032;28;20650;-78
2021/11/29 05:33:52;;;;;;;4.72;3.78;;;4.00;99.90;;;;;;4974936;28;20259;-77
2021/11/29 05:36:18;;;;;;;4.07;3.78;;;4.10;99.90;;;;;;4957657;28;20234;-77
2021/11/29 05:38:45;;;;;;;4.88;4.38;;;4.10;99.90;;;;;;4973031;28;20196;-77
2021/11/29 05:41:11;;;;;;;3.95;3.65;;;4.20;99.90;;;;;;4974444;28;20206;-77
2021/11/29 05:43:38;;;;;;;5.53;4.90;;;4.20;99.90;;;;;;4956503;28;20183;-76
2021/11/29 05:46:04;;;;;;;5.00;4.57;;;4.30;99.90;;;;;;4973810;28;20588;-77
2021/11/29 05:48:30;;;;;;;5.50;4.63;;;4.30;99.90;;;;;;4973861;28;20176;-76
2021/11/29 05:51:00;;;;;;;5.35;4.85;;;4.40;99.90;;;;;;4974420;28;20567;-76
2021/11/29 05:53:27;;;;;;;5.57;5.13;;;4.40;99.90;;;;;;4974933;28;20604;-75
2021/11/29 05:55:53;;;;;;;5.85;5.20;;;4.40;99.90;;;;;;4978477;28;20190;-76
2021/11/29 05:58:22;;;;;;;5.20;4.68;;;4.50;99.90;;;;;;4982380;28;20168;-77
2021/11/29 06:00:47;;;;;;;4.32;4.00;;;4.50;99.90;;;;;;4985728;28;20183;-76
2021/11/29 06:03:13;;;;;;;4.40;4.00;;;4.60;99.90;;;;;;4982664;28;20806;-78
2021/11/29 06:05:39;;;;;;;5.60;4.37;;;4.60;99.90;;;;;;4979743;28;20324;-78
2021/11/29 06:08:05;;;;;;;5.22;4.72;;;4.60;99.90;;;;;;4979278;28;20558;-77
2021/11/29 06:10:31;;;;;;;7.20;4.97;;;4.70;99.90;;;;;;4978685;28;20210;-77
2021/11/29 06:12:57;;;;;;;5.38;4.88;;;4.70;99.90;;;;;;4977795;28;20199;-77
2021/11/29 06:15:22;;;;;;;5.63;4.57;;;4.70;99.90;;;;;;4979787;28;20207;-77
2021/11/29 06:17:48;;;;;;;4.70;4.20;;;4.70;99.90;;;;;;4979038;28;20202;-77
2021/11/29 06:20:19;;;;;;;5.23;3.50;;;4.70;99.90;;;;;;4979590;28;20611;-78
2021/11/29 06:22:52;;;;;;;5.53;5.00;;;4.70;99.90;;;;;;4977454;28;20598;-78
2021/11/29 06:25:19;;;;;;;5.70;4.35;;;4.70;99.90;;;;;;4974978;28;20632;-77
2021/11/29 06:27:45;;;;;;;9.15;6.55;;;4.80;99.90;;;;;;4976937;28;20187;-77
2021/11/29 06:30:11;;;;;;;7.43;5.40;;;4.80;99.90;;;;;;4977555;28;20400;-77
2021/11/29 06:32:37;;;;;;;5.32;4.82;;;4.80;99.90;;;;;;4977180;28;20575;-77
2021/11/29 06:35:04;;;;;;;7.57;6.37;;;4.80;99.90;;;;;;4982256;28;20200;-77
2021/11/29 06:37:31;;;;;;;5.70;4.68;;;4.80;99.90;;;;;;4961132;28;20176;-77
2021/11/29 06:39:58;;;;;;;6.50;5.85;;;4.80;99.90;;;;;;4975697;28;20215;-77
2021/11/29 06:42:24;;;;;;;7.32;6.22;;;4.80;99.90;;;;;;4974421;28;20646;-76
2021/11/29 06:44:52;;;;;;;7.88;7.15;;;4.80;99.90;;;;;;4974621;28;20582;-78
2021/11/29 06:47:17;;;;;;;11.02;9.70;;;4.80;99.90;;;;;;4973284;28;20534;-77
2021/11/29 06:49:44;;;;;;;9.05;8.15;;;4.80;99.90;;;;;;4957087;28;20195;-78
2021/11/29 06:52:10;;;;;;;11.40;10.30;;;4.80;99.90;;;;;;4972121;28;20246;-78
2021/11/29 06:54:37;;;;;;;8.70;7.47;;;4.80;99.90;;;;;;4972934;28;21562;-78
2021/11/29 06:57:07;;;;;;;7.85;7.05;;;4.80;99.90;;;;;;4973073;28;20603;-78
2021/11/29 06:59:34;;;;;;;9.25;7.80;;;4.80;99.90;;;;;;4972731;28;20190;-78
2021/11/29 07:02:02;;;;;;;8.90;8.00;;;4.80;99.90;;;;;;4973489;28;20225;-78
2021/11/29 07:04:28;;;;;;;8.30;6.93;;;4.80;99.90;;;;;;4971661;28;20224;-77
2021/11/29 07:06:54;;;;;;;8.45;7.50;;;4.90;99.90;;;;;;4972691;28;20175;-78
2021/11/29 07:09:20;;;;;;;8.13;7.23;;;4.90;99.90;;;;;;4973615;28;20786;-78
2021/11/29 07:11:46;;;;;;;8.30;7.37;;;4.90;99.90;;;;;;4976953;28;20695;-79
2021/11/29 07:14:13;;;;;;;8.60;7.50;;;4.90;99.90;;;;;;4972388;28;20294;-79
2021/11/29 07:16:45;;;;;;;8.77;7.88;;;4.90;99.90;;;;;;4956109;28;20164;-79
2021/11/29 07:19:11;;;;;;;8.63;7.82;;;4.90;99.90;;;;;;4975340;28;20683;-78
2021/11/29 07:21:37;;;;;;;8.40;7.50;;;4.90;99.90;;;;;;4953922;28;20175;-81
2021/11/29 07:24:03;;;;;;;7.90;6.80;;;4.80;99.90;;;;;;4956244;28;20195;-80
2021/11/29 07:26:29;;;;;;;9.38;7.60;;;4.80;99.90;;;;;;4974371;28;20594;-80
2021/11/29 07:28:54;;;;;;;8.43;6.67;;;4.80;99.90;;;;;;4973690;28;20234;-80
2021/11/29 07:31:20;;;;;;;7.87;6.43;;;4.90;99.90;;;;;;4974068;28;20532;-80
2021/11/29 07:33:47;;;;;;;8.00;7.20;;;4.90;99.90;;;;;;4974576;28;20202;-80
2021/11/29 07:36:13;;;;;;;10.00;7.68;;;4.90;99.90;;;;;;4972999;28;20168;-79
2021/11/29 07:38:39;;;;;;;8.60;6.77;;;4.90;99.90;;;;;;4956332;28;20160;-79
2021/11/29 07:41:04;;;;;;;9.40;7.20;;;5.00;99.90;;;;;;4972782;28;20563;-79
2021/11/29 07:43:30;;;;;;;8.93;6.50;;;5.00;99.90;;;;;;4973098;28;20631;-79
2021/11/29 07:45:56;;;;;;;9.30;7.00;;;5.00;99.90;;;;;;4968572;28;20262;-79
2021/11/29 07:48:22;;;;;;;7.67;6.83;;;5.10;99.90;;;;;;4941393;28;20207;-79
2021/11/29 07:50:48;;;;;;;8.20;6.90;;;5.10;99.90;;;;;;4973562;28;20939;-79
2021/11/29 07:53:14;;;;;;;10.27;6.93;;;5.10;99.90;;;;;;4965394;28;20271;-78
2021/11/29 07:55:40;;;;;;;9.55;6.85;;;5.10;99.90;;;;;;4952739;29;20958;-79
2021/11/29 07:58:06;;;;;;;10.00;7.73;;;5.20;99.90;;;;;;4952869;28;20165;-79
2021/11/29 08:00:34;;;;;;;14.97;8.33;;;5.20;99.90;;;;;;4962480;28;20717;-80
2021/11/29 08:03:03;;;;;;;10.13;8.18;;;5.20;99.90;;;;;;4943314;28;21178;-81
2021/11/29 08:05:30;;;;;;;11.10;8.10;;;5.20;99.90;;;;;;4954414;29;20565;-81
2021/11/29 08:07:57;;;;;;;8.57;7.28;;;5.30;99.90;;;;;;4946261;28;20197;-80
2021/11/29 08:10:24;;;;;;;8.90;7.20;;;5.30;99.90;;;;;;4968454;28;20211;-80
2021/11/29 08:12:50;;;;;;;10.77;7.43;;;5.30;99.90;;;;;;4972838;28;20567;-82
2021/11/29 08:15:17;;;;;;;11.93;7.78;;;5.30;99.90;;;;;;4973417;28;20200;-81
2021/11/29 08:17:43;;;;;;;11.88;7.70;;;5.30;99.90;;;;;;4960824;28;20645;-81
2021/11/29 08:20:11;;;;;;;9.80;7.20;;;5.40;99.90;;;;;;4974089;28;20246;-81
2021/11/29 08:22:37;;;;;;;9.27;6.88;;;5.40;99.90;;;;;;4975984;28;20575;-81
2021/11/29 08:25:03;;;;;;;9.47;6.93;;;5.50;99.90;;;;;;4978142;28;20255;-80
2021/11/29 08:27:32;;;;;;;9.77;7.25;;;5.50;99.90;;;;;;4975665;28;20590;-82
2021/11/29 08:29:58;;;;;;;9.70;7.35;;;5.60;99.90;;;;;;4977578;28;20203;-81
2021/11/29 08:32:24;;;;;;;11.60;6.73;;;5.60;99.90;;;;;;4975945;28;20192;-81
2021/11/29 08:34:49;;;;;;;13.57;8.50;;;5.60;99.90;;;;;;4976707;28;20230;-79
2021/11/29 08:37:15;;;;;;;13.73;8.30;;;5.60;99.90;;;;;;4974868;28;20168;-80
2021/11/29 08:39:41;;;;;;;10.50;6.47;;;5.70;99.90;;;;;;4974818;28;20195;-80
2021/11/29 08:42:07;;;;;;;9.97;8.03;;;5.70;99.90;;;;;;4974493;28;20579;-81
2021/11/29 08:44:34;;;;;;;8.77;7.47;;;5.70;99.90;;;;;;4976927;28;20844;-81
2021/11/29 08:47:00;;;;;;;10.65;7.28;;;5.80;99.90;;;;;;4975895;28;20223;-80
2021/11/29 08:49:27;;;;;;;8.35;6.53;;;5.80;99.90;;;;;;4977603;28;20199;-81
2021/11/29 08:51:55;;;;;;;10.20;7.43;;;5.80;99.90;;;;;;4976854;28;20178;-80
2021/11/29 08:54:23;;;;;;;8.52;7.53;;;5.90;99.90;;;;;;4974899;28;20262;-80
2021/11/29 08:56:49;;;;;;;10.02;6.90;;;6.00;99.90;;;;;;4980016;28;20172;-80
2021/11/29 08:59:19;;;;;;;8.90;6.97;;;6.10;99.90;;;;;;4976756;28;20199;-80
2021/11/29 09:01:48;;;;;;;8.75;6.50;;;6.20;99.90;;;;;;4977917;28;20203;-81
2021/11/29 09:04:14;;;;;;;10.80;8.05;;;6.30;99.90;;;;;;4977828;28;20175;-80
2021/11/29 09:06:40;;;;;;;8.57;7.30;;;6.40;99.90;;;;;;4976187;28;20183;-80
2021/11/29 09:09:06;;;;;;;8.97;7.03;;;6.60;99.90;;;;;;4976261;28;20204;-81
2021/11/29 09:11:32;;;;;;;9.95;6.82;;;6.70;99.90;;;;;;4980032;28;20603;-80
2021/11/29 09:13:58;;;;;;;11.13;6.73;;;6.80;99.90;;;;;;4984388;28;20192;-80
2021/11/29 09:16:25;;;;;;;8.15;6.72;;;7.00;99.90;;;;;;4979641;28;20575;-79
2021/11/29 09:18:51;;;;;;;9.20;7.00;;;7.10;99.90;;;;;;4983246;28;20247;-80
2021/11/29 09:21:20;;;;;;;9.52;5.68;;;7.30;99.90;;;;;;4978541;28;20262;-81
2021/11/29 09:23:46;;;;;;;8.38;5.28;;;7.40;99.90;;;;;;4982715;28;20190;-82
2021/11/29 09:26:13;;;;;;;8.38;5.85;;;7.50;99.90;;;;;;4978409;28;20179;-81
2021/11/29 09:28:40;;;;;;;7.50;6.22;;;7.60;99.90;;;;;;4981671;28;20215;-79
2021/11/29 09:31:07;;;;;;;6.60;5.75;;;7.80;99.90;;;;;;4978226;28;20208;-81
2021/11/29 09:33:34;;;;;;;8.70;5.18;;;7.80;99.90;;;;;;4976297;28;20238;-81
2021/11/29 09:36:00;;;;;;;6.70;5.00;;;7.80;99.90;;;;;;4974597;28;20167;-81
2021/11/29 09:38:26;;;;;;;6.35;5.53;;;7.80;99.90;;;;;;4981029;28;20172;-81
2021/11/29 09:40:52;;;;;;;6.67;5.33;;;7.80;99.90;;;;;;4987108;28;20186;-80
2021/11/29 09:43:19;;;;;;;7.28;4.82;;;7.70;99.90;;;;;;4985831;28;21150;-81
2021/11/29 09:45:48;;;;;;;7.20;5.30;;;7.60;99.90;;;;;;4974127;28;20179;-81
2021/11/29 09:48:15;;;;;;;5.88;4.60;;;7.50;99.90;;;;;;4964115;29;20298;-81
2021/11/29 09:50:46;;;;;;;7.78;4.82;;;7.50;99.90;;;;;;4965960;29;20203;-80
2021/11/29 09:53:15;;;;;;;7.35;4.85;;;7.40;99.90;;;;;;4971110;28;20254;-80
2021/11/29 09:55:43;;;;;;;10.10;6.03;;;7.40;99.90;;;;;;4983498;28;20168;-80
2021/11/29 09:58:09;;;;;;;8.05;5.88;;;7.30;99.90;;;;;;4986074;28;20195;-79
2021/11/29 10:00:42;;;;;;;6.70;5.60;;;7.20;99.90;;;;;;4944982;28;20202;-80
2021/11/29 10:03:08;;;;;;;7.57;4.63;;;7.20;99.90;;;;;;4985674;28;20236;-80
2021/11/29 10:05:36;;;;;;;6.72;4.72;;;7.10;99.90;;;;;;4987944;28;20624;-82
2021/11/29 10:08:29;;;;;;;6.20;4.55;;;7.10;99.90;;;;;;4992655;28;20268;-82
2021/11/29 10:11:06;;;;;;;8.25;5.20;;;7.00;99.90;;;;;;4998404;28;20199;-82
2021/11/29 10:13:53;;;;;;;5.10;4.60;;;6.90;99.90;;;;;;4998147;28;20199;-82
2021/11/29 10:16:33;;;;;;;6.45;4.78;;;6.80;99.90;;;;;;4998657;28;20160;-82
2021/11/29 10:18:59;;;;;;;11.05;5.65;;;6.80;99.90;;;;;;4998769;28;20183;-81
2021/11/29 10:21:25;;;;;;;11.02;6.18;;;6.80;99.90;;;;;;4998706;28;20148;-81
2021/11/29 10:23:53;;;;;;;10.00;6.00;;;6.70;99.90;;;;;;4997804;28;20723;-81
2021/11/29 10:26:22;;;;;;;8.77;5.90;;;6.70;99.90;;;;;;4994258;28;20187;-81
2021/11/29 10:29:01;;;;;;;6.72;4.47;;;6.70;99.90;;;;;;4989584;28;20222;-81
2021/11/29 10:31:38;;;;;;;11.65;5.60;;;6.70;99.90;;;;;;4980115;28;20175;-81
2021/11/29 10:34:13;;;;;;;9.25;6.00;;;6.70;99.90;;;;;;4977305;28;20695;-81
2021/11/29 10:37:01;;;;;;;9.93;5.03;;;6.80;99.90;;;;;;4974756;28;20167;-80
2021/11/29 10:39:35;;;;;;;6.22;4.10;;;6.80;99.90;;;;;;4973913;28;20192;-80
2021/11/29 10:42:04;;;;;;;5.32;4.72;;;6.90;99.90;;;;;;4975130;28;20175;-82
2021/11/29 10:44:39;;;;;;;9.25;5.18;;;6.90;99.90;;;;;;4976314;28;20236;-82
2021/11/29 10:47:15;;;;;;;7.10;4.70;;;6.90;99.90;;;;;;4975574;28;20262;-82
2021/11/29 10:49:49;;;;;;;9.70;6.28;;;6.90;99.90;;;;;;4977463;28;20194;-83
2021/11/29 10:52:18;;;;;;;7.53;5.50;;;6.90;99.90;;;;;;4979369;28;20175;-82
2021/11/29 10:54:45;;;;;;;10.25;6.05;;;6.90;99.90;;;;;;4958872;28;20215;-79
2021/11/29 10:57:12;;;;;;;10.27;6.50;;;6.90;99.90;;;;;;4955927;28;20633;-80
2021/11/29 10:59:40;;;;;;;8.82;5.53;;;6.90;99.90;;;;;;4955241;29;20248;-79
2021/11/29 11:02:14;;;;;;;13.18;7.43;;;6.90;99.90;;;;;;4955395;28;20542;-80
2021/11/29 11:04:59;;;;;;;11.57;7.47;;;6.90;99.90;;;;;;4957106;29;20198;-80
2021/11/29 11:07:26;;;;;;;12.52;6.75;;;6.80;99.90;;;;;;4954620;28;20172;-82
2021/11/29 11:09:52;;;;;;;12.70;7.00;;;6.90;99.90;;;;;;4959020;28;20203;-82
2021/11/29 11:12:20;;;;;;;10.48;5.55;;;6.90;99.90;;;;;;4959167;29;20176;-82
2021/11/29 11:14:53;;;;;;;10.88;6.00;;;6.90;99.90;;;;;;4940805;29;20211;-82
2021/11/29 11:17:26;;;;;;;9.57;6.30;;;6.90;99.90;;;;;;4958933;28;20180;-81
2021/11/29 11:20:07;;;;;;;12.93;6.38;;;6.90;99.90;;;;;;4941879;29;20203;-82
2021/11/29 11:22:36;;;;;;;11.98;6.75;;;6.90;99.90;;;;;;4941647;29;20180;-82
2021/11/29 11:25:08;;;;;;;13.30;7.30;;;6.90;99.90;;;;;;4975356;28;20187;-78
2021/11/29 11:27:42;;;;;;;12.02;8.00;;;6.90;99.90;;;;;;4945526;29;20179;-79
2021/11/29 11:30:17;;;;;;;15.63;7.90;;;6.90;99.90;;;;;;4971848;28;20219;-81
2021/11/29 11:32:48;;;;;;;9.88;6.60;;;6.90;99.90;;;;;;4951641;29;20232;-82
2021/11/29 11:35:18;;;;;;;13.88;8.60;;;6.90;99.90;;;;;;4943240;29;20213;-80
2021/11/29 11:37:48;;;;;;;8.05;6.55;;;6.90;99.90;;;;;;4939458;29;20178;-81
2021/11/29 11:40:20;;;;;;;13.18;8.95;;;6.90;99.90;;;;;;4934394;29;20203;-80
2021/11/29 11:42:48;;;;;;;13.90;7.53;;;6.90;99.90;;;;;;4934792;29;20589;-81
2021/11/29 11:45:17;;;;;;;10.90;6.85;;;7.00;99.90;;;;;;4933230;29;20269;-81
2021/11/29 11:47:46;;;;;;;11.65;7.97;;;7.00;99.90;;;;;;4933846;29;20252;-82
2021/11/29 11:50:13;;;;;;;11.02;7.10;;;7.00;99.90;;;;;;4943418;29;20193;-81
2021/11/29 11:52:41;;;;;;;13.82;8.25;;;7.00;99.90;;;;;;4946865;29;20188;-80
2021/11/29 11:55:09;;;;;;;9.50;6.80;;;7.00;99.90;;;;;;4939417;29;20228;-80
2021/11/29 11:57:36;;;;;;;23.67;8.18;;;7.00;99.90;;;;;;4955837;28;20710;-80
2021/11/29 12:00:22;;;;;;;10.43;6.82;;;7.00;99.90;;;;;;4939761;29;20207;-80
2021/11/29 12:03:11;;;;;;;11.23;7.60;;;7.00;99.90;;;;;;4956157;29;20259;-80
2021/11/29 12:05:56;;;;;;;11.82;8.55;;;7.00;99.90;;;;;;4959306;29;20180;-79
2021/11/29 12:08:40;;;;;;;11.68;6.90;;;7.00;99.90;;;;;;4938882;29;20515;-80
2021/11/29 12:11:28;;;;;;;15.40;7.32;;;7.00;99.90;;;;;;4956910;29;20613;-80
2021/11/29 12:14:04;;;;;;;8.27;5.75;;;7.10;99.90;;;;;;4938837;29;20215;-80
2021/11/29 12:16:42;;;;;;;7.45;6.28;;;7.10;99.90;;;;;;4939381;29;20580;-80
2021/11/29 12:19:28;;;;;;;8.00;5.47;;;7.10;99.90;;;;;;4949947;28;20693;-80
2021/11/29 12:21:56;;;;;;;5.95;4.85;;;7.10;99.90;;;;;;4919005;29;20185;-79
2021/11/29 12:24:26;;;;;;;5.65;4.75;;;7.10;99.90;;;;;;4955955;29;20211;-79
2021/11/29 12:27:02;;;;;;;6.22;3.50;;;7.10;99.90;;;;;;4956276;29;20172;-79
2021/11/29 12:29:27;;;;;;;5.05;4.03;;;7.10;99.90;;;;;;4955481;29;20551;-79
2021/11/29 12:32:02;;;;;;;3.67;2.97;;;7.20;99.90;;;;;;4955796;29;20169;-80
2021/11/29 12:34:43;;;;;;;7.03;3.90;;;7.20;99.90;;;;;;4938608;29;20231;-79
2021/11/29 12:37:32;;;;;;;7.18;4.47;;;7.20;99.90;;;;;;4938524;29;20583;-79
2021/11/29 12:40:08;;;;;;;7.30;4.30;;;7.30;99.90;;;;;;4956261;29;20566;-79
2021/11/29 12:42:34;;;;;;;5.30;3.63;;;7.30;99.90;;;;;;4941772;29;20311;-80
2021/11/29 12:45:08;;;;;;;7.60;3.60;;;7.40;99.90;;;;;;4957013;29;20255;-79
2021/11/29 12:47:43;;;;;;;7.15;3.22;;;7.40;99.90;;;;;;4954828;29;20176;-79
2021/11/29 12:50:37;;;;;;;8.57;4.95;;;7.50;99.90;;;;;;4936447;29;20287;-80
2021/11/29 12:53:13;;;;;;;6.20;3.85;;;7.50;99.90;;;;;;4936527;29;20263;-80
2021/11/29 12:55:42;;;;;;;9.70;6.20;;;7.50;99.90;;;;;;4955204;29;20180;-79
2021/11/29 12:58:18;;;;;;;4.93;4.10;;;7.60;99.90;;;;;;4954715;29;20164;-80